sensor_id;sensor_type;location;lat;lon;timestamp;pressure;altitude;pressure_sealevel;temperature;humidity
12636;BME280;6383;50.830;7.210;2023-03-13T00:00:51;99879.41;;;11.00;72.63
12636;BME280;6383;50.830;7.210;2023-03-13T00:03:18;99872.53;;;11.03;72.82
12636;BME280;6383;50.830;7.210;2023-03-13T00:05:46;99869.97;;;11.06;72.85
12636;BME280;6383;50.830;7.210;2023-03-13T00:08:14;99860.38;;;11.09;72.61
12636;BME280;6383;50.830;7.210;2023-03-13T00:10:42;99858.94;;;11.11;73.00
12636;BME280;6383;50.830;7.210;2023-03-13T00:13:11;99853.63;;;11.15;72.74
12636;BME280;6383;50.830;7.210;2023-03-13T00:15:41;99852.19;;;11.17;73.07
12636;BME280;6383;50.830;7.210;2023-03-13T00:18:10;99839.03;;;11.19;73.07
12636;BME280;6383;50.830;7.210;2023-03-13T00:20:38;99834.88;;;11.22;73.00
12636;BME280;6383;50.830;7.210;2023-03-13T00:23:14;99836.16;;;11.24;73.15
12636;BME280;6383;50.830;7.210;2023-03-13T00:25:42;99823.81;;;11.27;73.30
12636;BME280;6383;50.830;7.210;2023-03-13T00:28:15;99833.25;;;11.29;73.01
12636;BME280;6383;50.830;7.210;2023-03-13T00:30:45;99816.59;;;11.31;73.15
12636;BME280;6383;50.830;7.210;2023-03-13T00:33:13;99809.69;;;11.34;73.48
12636;BME280;6383;50.830;7.210;2023-03-13T00:35:49;99801.69;;;11.37;73.33
12636;BME280;6383;50.830;7.210;2023-03-13T00:38:17;99787.75;;;11.39;73.47
12636;BME280;6383;50.830;7.210;2023-03-13T00:40:45;99781.16;;;11.40;73.26
12636;BME280;6383;50.830;7.210;2023-03-13T00:43:12;99771.56;;;11.42;73.02
12636;BME280;6383;50.830;7.210;2023-03-13T00:45:41;99766.56;;;11.44;73.45
12636;BME280;6383;50.830;7.210;2023-03-13T00:48:11;99759.19;;;11.45;73.44
12636;BME280;6383;50.830;7.210;2023-03-13T00:50:40;99752.28;;;11.47;73.22
12636;BME280;6383;50.830;7.210;2023-03-13T00:53:06;99754.69;;;11.49;73.57
12636;BME280;6383;50.830;7.210;2023-03-13T00:55:34;99741.06;;;11.49;73.50
12636;BME280;6383;50.830;7.210;2023-03-13T00:58:02;99738.00;;;11.50;73.67
12636;BME280;6383;50.830;7.210;2023-03-13T01:00:29;99735.28;;;11.50;73.55
12636;BME280;6383;50.830;7.210;2023-03-13T01:02:58;99725.50;;;11.49;73.93
12636;BME280;6383;50.830;7.210;2023-03-13T01:05:28;99727.44;;;11.49;74.02
12636;BME280;6383;50.830;7.210;2023-03-13T01:07:55;99725.03;;;11.47;74.13
12636;BME280;6383;50.830;7.210;2023-03-13T01:10:24;99716.06;;;11.47;74.30
12636;BME280;6383;50.830;7.210;2023-03-13T01:12:51;99716.06;;;11.47;74.50
12636;BME280;6383;50.830;7.210;2023-03-13T01:15:20;99710.13;;;11.45;74.62
12636;BME280;6383;50.830;7.210;2023-03-13T01:17:48;99711.25;;;11.44;75.19
12636;BME280;6383;50.830;7.210;2023-03-13T01:20:15;99711.63;;;11.42;75.18
12636;BME280;6383;50.830;7.210;2023-03-13T01:22:45;99707.28;;;11.41;75.35
12636;BME280;6383;50.830;7.210;2023-03-13T01:25:13;99701.38;;;11.39;75.39
12636;BME280;6383;50.830;7.210;2023-03-13T01:27:41;99684.53;;;11.37;76.04
12636;BME280;6383;50.830;7.210;2023-03-13T01:30:10;99682.94;;;11.36;76.42
12636;BME280;6383;50.830;7.210;2023-03-13T01:32:37;99675.09;;;11.35;76.26
12636;BME280;6383;50.830;7.210;2023-03-13T01:35:05;99666.13;;;11.34;76.63
12636;BME280;6383;50.830;7.210;2023-03-13T01:37:33;99668.03;;;11.34;76.60
12636;BME280;6383;50.830;7.210;2023-03-13T01:40:02;99671.09;;;11.32;76.78
12636;BME280;6383;50.830;7.210;2023-03-13T01:42:44;99671.88;;;11.32;76.65
12636;BME280;6383;50.830;7.210;2023-03-13T01:48:02;99659.88;;;11.34;77.59
12636;BME280;6383;50.830;7.210;2023-03-13T01:50:30;99656.81;;;11.35;77.61
12636;BME280;6383;50.830;7.210;2023-03-13T01:52:57;99645.13;;;11.35;77.97
12636;BME280;6383;50.830;7.210;2023-03-13T01:55:27;99646.41;;;11.37;78.03
12636;BME280;6383;50.830;7.210;2023-03-13T01:57:55;99642.56;;;11.38;78.11
12636;BME280;6383;50.830;7.210;2023-03-13T02:00:25;99630.53;;;11.39;78.08
12636;BME280;6383;50.830;7.210;2023-03-13T02:02:55;99639.19;;;11.41;77.98
12636;BME280;6383;50.830;7.210;2023-03-13T02:05:27;99622.47;;;11.43;78.11
12636;BME280;6383;50.830;7.210;2023-03-13T02:07:57;99609.66;;;11.43;78.20
12636;BME280;6383;50.830;7.210;2023-03-13T02:10:29;99610.13;;;11.45;78.56
12636;BME280;6383;50.830;7.210;2023-03-13T02:12:58;99596.19;;;11.47;78.66
12636;BME280;6383;50.830;7.210;2023-03-13T02:15:27;99593.13;;;11.48;78.82
12636;BME280;6383;50.830;7.210;2023-03-13T02:17:57;99588.47;;;11.49;78.70
12636;BME280;6383;50.830;7.210;2023-03-13T02:20:25;99576.91;;;11.52;78.75
12636;BME280;6383;50.830;7.210;2023-03-13T02:22:55;99571.16;;;11.53;78.58
12636;BME280;6383;50.830;7.210;2023-03-13T02:25:36;99566.97;;;11.56;78.57
12636;BME280;6383;50.830;7.210;2023-03-13T02:28:06;99557.66;;;11.57;78.95
12636;BME280;6383;50.830;7.210;2023-03-13T02:30:34;99551.41;;;11.56;78.47
12636;BME280;6383;50.830;7.210;2023-03-13T02:33:03;99542.78;;;11.54;78.57
12636;BME280;6383;50.830;7.210;2023-03-13T02:35:31;99547.41;;;11.54;78.85
12636;BME280;6383;50.830;7.210;2023-03-13T02:38:01;99540.38;;;11.53;78.51
12636;BME280;6383;50.830;7.210;2023-03-13T02:40:30;99537.97;;;11.51;78.83
12636;BME280;6383;50.830;7.210;2023-03-13T02:43:02;99537.50;;;11.49;78.88
12636;BME280;6383;50.830;7.210;2023-03-13T02:45:30;99530.47;;;11.48;78.70
12636;BME280;6383;50.830;7.210;2023-03-13T02:47:59;99531.59;;;11.47;78.68
12636;BME280;6383;50.830;7.210;2023-03-13T02:50:26;99522.94;;;11.45;79.30
12636;BME280;6383;50.830;7.210;2023-03-13T02:52:54;99524.53;;;11.46;78.85
12636;BME280;6383;50.830;7.210;2023-03-13T02:55:25;99522.94;;;11.45;79.65
12636;BME280;6383;50.830;7.210;2023-03-13T02:57:54;99518.28;;;11.46;79.71
12636;BME280;6383;50.830;7.210;2023-03-13T03:00:24;99521.47;;;11.48;79.44
12636;BME280;6383;50.830;7.210;2023-03-13T03:02:51;99523.88;;;11.49;80.11
12636;BME280;6383;50.830;7.210;2023-03-13T03:05:19;99513.44;;;11.51;79.74
12636;BME280;6383;50.830;7.210;2023-03-13T03:07:47;99511.53;;;11.52;80.29
12636;BME280;6383;50.830;7.210;2023-03-13T03:10:16;99512.31;;;11.52;80.00
12636;BME280;6383;50.830;7.210;2023-03-13T03:12:45;99511.19;;;11.53;80.46
12636;BME280;6383;50.830;7.210;2023-03-13T03:15:13;99508.47;;;11.53;80.23
12636;BME280;6383;50.830;7.210;2023-03-13T03:17:42;99507.34;;;11.54;80.73
12636;BME280;6383;50.830;7.210;2023-03-13T03:20:09;99512.00;;;11.54;81.09
12636;BME280;6383;50.830;7.210;2023-03-13T03:22:39;99504.94;;;11.53;80.79
12636;BME280;6383;50.830;7.210;2023-03-13T03:25:07;99493.72;;;11.54;80.98
12636;BME280;6383;50.830;7.210;2023-03-13T03:27:36;99485.53;;;11.54;81.21
12636;BME280;6383;50.830;7.210;2023-03-13T03:30:03;99494.53;;;11.55;81.55
12636;BME280;6383;50.830;7.210;2023-03-13T03:32:31;99483.63;;;11.55;81.45
12636;BME280;6383;50.830;7.210;2023-03-13T03:35:00;99470.78;;;11.55;81.32
12636;BME280;6383;50.830;7.210;2023-03-13T03:37:29;99491.78;;;11.55;81.88
12636;BME280;6383;50.830;7.210;2023-03-13T03:39:58;99489.53;;;11.57;81.63
12636;BME280;6383;50.830;7.210;2023-03-13T03:42:26;99491.09;;;11.58;81.35
12636;BME280;6383;50.830;7.210;2023-03-13T03:44:54;99500.06;;;11.58;81.98
12636;BME280;6383;50.830;7.210;2023-03-13T03:47:22;99496.22;;;11.59;81.65
12636;BME280;6383;50.830;7.210;2023-03-13T03:49:50;99494.75;;;11.62;82.22
12636;BME280;6383;50.830;7.210;2023-03-13T03:52:21;99496.34;;;11.63;82.18
12636;BME280;6383;50.830;7.210;2023-03-13T03:54:49;99489.44;;;11.65;82.20
12636;BME280;6383;50.830;7.210;2023-03-13T03:57:17;99483.19;;;11.65;82.38
12636;BME280;6383;50.830;7.210;2023-03-13T03:59:45;99485.59;;;11.66;82.39
12636;BME280;6383;50.830;7.210;2023-03-13T04:02:13;99476.28;;;11.68;82.39
12636;BME280;6383;50.830;7.210;2023-03-13T04:04:42;99472.44;;;11.69;82.37
12636;BME280;6383;50.830;7.210;2023-03-13T04:07:09;99464.72;;;11.71;82.62
12636;BME280;6383;50.830;7.210;2023-03-13T04:09:38;99463.59;;;11.72;82.44
12636;BME280;6383;50.830;7.210;2023-03-13T04:12:07;99461.31;;;11.74;82.66
12636;BME280;6383;50.830;7.210;2023-03-13T04:14:35;99455.53;;;11.75;82.52
12636;BME280;6383;50.830;7.210;2023-03-13T04:17:03;99447.03;;;11.77;82.85
12636;BME280;6383;50.830;7.210;2023-03-13T04:19:30;99433.88;;;11.79;82.54
12636;BME280;6383;50.830;7.210;2023-03-13T04:21:58;99437.06;;;11.81;82.81
12636;BME280;6383;50.830;7.210;2023-03-13T04:24:26;99440.25;;;11.83;82.96
12636;BME280;6383;50.830;7.210;2023-03-13T04:26:54;99436.41;;;11.84;82.81
12636;BME280;6383;50.830;7.210;2023-03-13T04:29:22;99437.66;;;11.86;83.20
12636;BME280;6383;50.830;7.210;2023-03-13T04:31:51;99432.66;;;11.88;83.17
12636;BME280;6383;50.830;7.210;2023-03-13T04:34:18;99410.19;;;11.91;83.23
12636;BME280;6383;50.830;7.210;2023-03-13T04:36:45;99412.56;;;11.93;82.67
12636;BME280;6383;50.830;7.210;2023-03-13T04:39:13;99416.56;;;11.95;83.17
12636;BME280;6383;50.830;7.210;2023-03-13T04:41:42;99411.56;;;11.97;83.20
12636;BME280;6383;50.830;7.210;2023-03-13T04:44:10;99404.97;;;11.98;82.88
12636;BME280;6383;50.830;7.210;2023-03-13T04:46:38;99407.38;;;12.00;83.14
12636;BME280;6383;50.830;7.210;2023-03-13T04:49:05;99410.91;;;12.00;83.37
12636;BME280;6383;50.830;7.210;2023-03-13T04:51:34;99410.91;;;12.00;83.34
12636;BME280;6383;50.830;7.210;2023-03-13T04:54:01;99414.41;;;12.01;83.66
12636;BME280;6383;50.830;7.210;2023-03-13T04:56:29;99413.25;;;12.02;83.39
12636;BME280;6383;50.830;7.210;2023-03-13T04:58:57;99417.94;;;12.02;83.50
12636;BME280;6383;50.830;7.210;2023-03-13T05:01:28;99410.53;;;12.02;83.38
12636;BME280;6383;50.830;7.210;2023-03-13T05:03:57;99398.50;;;12.03;83.54
12636;BME280;6383;50.830;7.210;2023-03-13T05:06:28;99395.44;;;12.05;83.86
12636;BME280;6383;50.830;7.210;2023-03-13T05:08:57;99391.91;;;12.04;83.68
12636;BME280;6383;50.830;7.210;2023-03-13T05:11:25;99389.19;;;12.04;84.07
12636;BME280;6383;50.830;7.210;2023-03-13T05:13:52;99381.00;;;12.04;84.39
12636;BME280;6383;50.830;7.210;2023-03-13T05:16:21;99371.69;;;12.05;83.75
12636;BME280;6383;50.830;7.210;2023-03-13T05:18:51;99373.63;;;12.05;83.99
12636;BME280;6383;50.830;7.210;2023-03-13T05:21:20;99377.13;;;12.05;83.93
12636;BME280;6383;50.830;7.210;2023-03-13T05:23:49;99371.69;;;12.05;84.37
12636;BME280;6383;50.830;7.210;2023-03-13T05:26:18;99363.50;;;12.05;84.16
12636;BME280;6383;50.830;7.210;2023-03-13T05:28:46;99369.75;;;12.06;84.20
12636;BME280;6383;50.830;7.210;2023-03-13T05:31:15;99379.53;;;12.07;84.42
12636;BME280;6383;50.830;7.210;2023-03-13T05:33:44;99376.47;;;12.08;84.28
12636;BME280;6383;50.830;7.210;2023-03-13T05:36:14;99381.13;;;12.08;84.75
12636;BME280;6383;50.830;7.210;2023-03-13T05:38:42;99365.56;;;12.08;84.24
12636;BME280;6383;50.830;7.210;2023-03-13T05:41:13;99357.38;;;12.08;84.28
12636;BME280;6383;50.830;7.210;2023-03-13T05:43:42;99366.03;;;12.10;84.65
12636;BME280;6383;50.830;7.210;2023-03-13T05:46:11;99371.94;;;12.12;85.05
12636;BME280;6383;50.830;7.210;2023-03-13T05:48:38;99356.38;;;12.13;84.49
12636;BME280;6383;50.830;7.210;2023-03-13T05:51:06;99361.16;;;12.16;84.57
12636;BME280;6383;50.830;7.210;2023-03-13T05:53:35;99365.91;;;12.19;84.65
12636;BME280;6383;50.830;7.210;2023-03-13T05:56:04;99366.69;;;12.19;84.50
12636;BME280;6383;50.830;7.210;2023-03-13T05:58:32;99367.94;;;12.22;84.97
12636;BME280;6383;50.830;7.210;2023-03-13T06:01:05;99360.22;;;12.24;84.93
12636;BME280;6383;50.830;7.210;2023-03-13T06:03:32;99358.75;;;12.26;85.19
12636;BME280;6383;50.830;7.210;2023-03-13T06:06:00;99354.56;;;12.29;85.26
12636;BME280;6383;50.830;7.210;2023-03-13T06:08:28;99363.19;;;12.31;85.21
12636;BME280;6383;50.830;7.210;2023-03-13T06:11:00;99364.75;;;12.32;85.00
12636;BME280;6383;50.830;7.210;2023-03-13T06:13:29;99366.03;;;12.34;85.28
12636;BME280;6383;50.830;7.210;2023-03-13T06:15:58;99368.88;;;12.38;85.07
12636;BME280;6383;50.830;7.210;2023-03-13T06:18:27;99377.50;;;12.40;85.07
12636;BME280;6383;50.830;7.210;2023-03-13T06:20:56;99369.44;;;12.44;85.06
12636;BME280;6383;50.830;7.210;2023-03-13T06:23:26;99345.78;;;12.48;85.02
12636;BME280;6383;50.830;7.210;2023-03-13T06:25:55;99345.09;;;12.51;85.54
12636;BME280;6383;50.830;7.210;2023-03-13T06:28:24;99343.75;;;12.57;85.40
12636;BME280;6383;50.830;7.210;2023-03-13T06:30:52;99352.47;;;12.62;85.30
12636;BME280;6383;50.830;7.210;2023-03-13T06:33:21;99346.78;;;12.67;85.70
12636;BME280;6383;50.830;7.210;2023-03-13T06:35:50;99375.78;;;12.72;85.44
12636;BME280;6383;50.830;7.210;2023-03-13T06:38:18;99382.16;;;12.76;85.86
12636;BME280;6383;50.830;7.210;2023-03-13T06:40:47;99378.84;;;12.83;85.70
12636;BME280;6383;50.830;7.210;2023-03-13T06:43:14;99377.34;;;12.85;85.75
12636;BME280;6383;50.830;7.210;2023-03-13T06:45:45;99373.16;;;12.88;85.74
12636;BME280;6383;50.830;7.210;2023-03-13T06:48:13;99385.31;;;12.90;85.93
12636;BME280;6383;50.830;7.210;2023-03-13T06:50:42;99396.34;;;12.94;86.09
12636;BME280;6383;50.830;7.210;2023-03-13T06:53:13;99399.84;;;12.94;86.07
12636;BME280;6383;50.830;7.210;2023-03-13T06:55:42;99401.44;;;12.95;86.25
12636;BME280;6383;50.830;7.210;2023-03-13T06:58:09;99402.72;;;12.98;86.05
12636;BME280;6383;50.830;7.210;2023-03-13T07:00:37;99418.75;;;12.99;86.37
12636;BME280;6383;50.830;7.210;2023-03-13T07:03:06;99411.00;;;13.01;86.20
12636;BME280;6383;50.830;7.210;2023-03-13T07:05:35;99404.41;;;13.02;85.79
12636;BME280;6383;50.830;7.210;2023-03-13T07:08:02;99420.13;;;13.05;86.03
12636;BME280;6383;50.830;7.210;2023-03-13T07:10:30;99414.28;;;13.07;86.42
12636;BME280;6383;50.830;7.210;2023-03-13T07:12:57;99415.88;;;13.08;85.75
12636;BME280;6383;50.830;7.210;2023-03-13T07:15:24;99418.25;;;13.10;86.36
12636;BME280;6383;50.830;7.210;2023-03-13T07:17:55;99417.13;;;13.11;86.12
12636;BME280;6383;50.830;7.210;2023-03-13T07:20:24;99421.13;;;13.13;86.35
12636;BME280;6383;50.830;7.210;2023-03-13T07:22:53;99417.59;;;13.13;86.14
12636;BME280;6383;50.830;7.210;2023-03-13T07:25:21;99416.13;;;13.15;86.54
12636;BME280;6383;50.830;7.210;2023-03-13T07:27:51;99423.66;;;13.18;86.40
12636;BME280;6383;50.830;7.210;2023-03-13T07:30:20;99414.31;;;13.19;86.34
12636;BME280;6383;50.830;7.210;2023-03-13T07:32:48;99418.25;;;13.22;86.34
12636;BME280;6383;50.830;7.210;2023-03-13T07:35:17;99409.72;;;13.23;86.23
12636;BME280;6383;50.830;7.210;2023-03-13T07:37:46;99412.91;;;13.25;86.31
12636;BME280;6383;50.830;7.210;2023-03-13T07:40:15;99406.31;;;13.26;86.07
12636;BME280;6383;50.830;7.210;2023-03-13T07:42:44;99422.81;;;13.30;86.24
12636;BME280;6383;50.830;7.210;2023-03-13T07:45:11;99422.13;;;13.33;86.53
12636;BME280;6383;50.830;7.210;2023-03-13T07:47:39;99410.94;;;13.38;86.33
12636;BME280;6383;50.830;7.210;2023-03-13T07:50:08;99410.25;;;13.41;86.29
12636;BME280;6383;50.830;7.210;2023-03-13T07:52:37;99417.06;;;13.47;85.88
12636;BME280;6383;50.830;7.210;2023-03-13T07:55:08;99401.19;;;13.53;86.29
12636;BME280;6383;50.830;7.210;2023-03-13T07:57:37;99385.81;;;13.60;85.30
12636;BME280;6383;50.830;7.210;2023-03-13T08:00:06;99379.72;;;13.67;85.80
12636;BME280;6383;50.830;7.210;2023-03-13T08:02:41;99381.84;;;13.73;84.95
12636;BME280;6383;50.830;7.210;2023-03-13T08:05:09;99376.94;;;13.79;85.45
12636;BME280;6383;50.830;7.210;2023-03-13T08:07:38;99372.34;;;13.83;85.24
12636;BME280;6383;50.830;7.210;2023-03-13T08:10:11;99370.84;;;13.86;84.59
12636;BME280;6383;50.830;7.210;2023-03-13T08:12:40;99372.53;;;13.90;85.33
12636;BME280;6383;50.830;7.210;2023-03-13T08:15:08;99371.03;;;13.93;84.47
12636;BME280;6383;50.830;7.210;2023-03-13T08:17:37;99369.53;;;13.95;84.22
12636;BME280;6383;50.830;7.210;2023-03-13T08:20:06;99364.84;;;13.96;84.06
12636;BME280;6383;50.830;7.210;2023-03-13T08:22:36;99374.28;;;13.98;84.08
12636;BME280;6383;50.830;7.210;2023-03-13T08:25:05;99357.53;;;14.00;83.78
12636;BME280;6383;50.830;7.210;2023-03-13T08:27:34;99358.69;;;13.99;83.58
12636;BME280;6383;50.830;7.210;2023-03-13T08:30:03;99362.22;;;13.99;84.21
12636;BME280;6383;50.830;7.210;2023-03-13T08:32:31;99362.22;;;13.99;83.60
12636;BME280;6383;50.830;7.210;2023-03-13T08:35:00;99359.47;;;13.99;83.42
12636;BME280;6383;50.830;7.210;2023-03-13T08:37:29;99364.94;;;13.99;84.19
12636;BME280;6383;50.830;7.210;2023-03-13T08:39:57;99352.84;;;14.00;83.87
12636;BME280;6383;50.830;7.210;2023-03-13T08:42:25;99359.56;;;14.03;83.91
12636;BME280;6383;50.830;7.210;2023-03-13T08:44:56;99353.75;;;14.04;83.50
12636;BME280;6383;50.830;7.210;2023-03-13T08:47:24;99352.59;;;14.05;83.45
12636;BME280;6383;50.830;7.210;2023-03-13T08:49:52;99347.94;;;14.06;83.38
12636;BME280;6383;50.830;7.210;2023-03-13T08:52:23;99347.94;;;14.06;82.86
12636;BME280;6383;50.830;7.210;2023-03-13T08:54:52;99347.94;;;14.06;82.42
12636;BME280;6383;50.830;7.210;2023-03-13T08:57:20;99348.03;;;14.09;83.36
12636;BME280;6383;50.830;7.210;2023-03-13T08:59:49;99346.16;;;14.13;82.33
12636;BME280;6383;50.830;7.210;2023-03-13T09:02:18;99346.59;;;14.16;82.54
12636;BME280;6383;50.830;7.210;2023-03-13T09:04:46;99347.03;;;14.18;82.31
12636;BME280;6383;50.830;7.210;2023-03-13T09:07:14;99346.69;;;14.19;82.54
12636;BME280;6383;50.830;7.210;2023-03-13T09:09:43;99342.44;;;14.22;82.29
12636;BME280;6383;50.830;7.210;2023-03-13T09:12:11;99343.69;;;14.24;82.19
12636;BME280;6383;50.830;7.210;2023-03-13T09:14:40;99339.41;;;14.27;82.54
12636;BME280;6383;50.830;7.210;2023-03-13T09:17:09;99342.25;;;14.30;81.88
12636;BME280;6383;50.830;7.210;2023-03-13T09:19:38;99343.50;;;14.33;81.88
12636;BME280;6383;50.830;7.210;2023-03-13T09:22:07;99342.00;;;14.35;81.43
12636;BME280;6383;50.830;7.210;2023-03-13T09:24:34;99346.75;;;14.38;81.83
12636;BME280;6383;50.830;7.210;2023-03-13T09:27:03;99346.84;;;14.42;82.03
12636;BME280;6383;50.830;7.210;2023-03-13T09:29:31;99343.75;;;14.43;82.22
12636;BME280;6383;50.830;7.210;2023-03-13T09:31:59;99336.00;;;14.45;81.49
12636;BME280;6383;50.830;7.210;2023-03-13T09:34:28;99333.69;;;14.48;82.09
12636;BME280;6383;50.830;7.210;2023-03-13T09:36:57;99333.69;;;14.48;81.86
12636;BME280;6383;50.830;7.210;2023-03-13T09:39:26;99330.59;;;14.49;82.02
12636;BME280;6383;50.830;7.210;2023-03-13T09:41:57;99331.41;;;14.50;81.31
12636;BME280;6383;50.830;7.210;2023-03-13T09:44:30;99320.44;;;14.50;81.99
12636;BME280;6383;50.830;7.210;2023-03-13T09:47:00;99323.19;;;14.50;81.59
12636;BME280;6383;50.830;7.210;2023-03-13T09:49:33;99316.56;;;14.51;81.28
12636;BME280;6383;50.830;7.210;2023-03-13T09:52:08;99320.91;;;14.52;81.64
12636;BME280;6383;50.830;7.210;2023-03-13T09:54:38;99316.22;;;14.52;81.92
12636;BME280;6383;50.830;7.210;2023-03-13T09:57:11;99314.28;;;14.53;81.36
12636;BME280;6383;50.830;7.210;2023-03-13T09:59:44;99310.00;;;14.55;81.61
12636;BME280;6383;50.830;7.210;2023-03-13T10:02:18;99308.84;;;14.56;81.43
12636;BME280;6383;50.830;7.210;2023-03-13T10:04:50;99303.03;;;14.58;81.37
12636;BME280;6383;50.830;7.210;2023-03-13T10:07:20;99310.88;;;14.59;81.83
12636;BME280;6383;50.830;7.210;2023-03-13T10:09:49;99307.34;;;14.59;81.54
12636;BME280;6383;50.830;7.210;2023-03-13T10:12:18;99316.78;;;14.61;82.08
12636;BME280;6383;50.830;7.210;2023-03-13T10:14:50;99314.50;;;14.63;81.23
12636;BME280;6383;50.830;7.210;2023-03-13T10:17:21;99296.13;;;14.64;81.42
12636;BME280;6383;50.830;7.210;2023-03-13T10:19:55;99297.72;;;14.65;81.97
12636;BME280;6383;50.830;7.210;2023-03-13T10:22:25;99282.06;;;14.65;81.98
12636;BME280;6383;50.830;7.210;2023-03-13T10:24:55;99287.91;;;14.64;81.98
12636;BME280;6383;50.830;7.210;2023-03-13T10:27:25;99287.91;;;14.64;82.07
12636;BME280;6383;50.830;7.210;2023-03-13T10:29:54;99286.75;;;14.65;81.85
12636;BME280;6383;50.830;7.210;2023-03-13T10:32:22;99287.91;;;14.64;82.18
12636;BME280;6383;50.830;7.210;2023-03-13T10:34:52;99289.84;;;14.63;81.94
12636;BME280;6383;50.830;7.210;2023-03-13T10:37:22;99281.28;;;14.65;82.20
12636;BME280;6383;50.830;7.210;2023-03-13T10:39:53;99269.19;;;14.66;81.78
12636;BME280;6383;50.830;7.210;2023-03-13T10:42:25;99269.19;;;14.66;82.39
12636;BME280;6383;50.830;7.210;2023-03-13T10:45:00;99255.50;;;14.66;82.33
12636;BME280;6383;50.830;7.210;2023-03-13T10:47:27;99259.03;;;14.66;82.31
12636;BME280;6383;50.830;7.210;2023-03-13T10:50:00;99258.22;;;14.66;82.28
12636;BME280;6383;50.830;7.210;2023-03-13T10:52:30;99268.81;;;14.67;82.10
12636;BME280;6383;50.830;7.210;2023-03-13T10:55:00;99256.63;;;14.65;82.65
12636;BME280;6383;50.830;7.210;2023-03-13T10:57:29;99257.44;;;14.65;82.44
12636;BME280;6383;50.830;7.210;2023-03-13T10:59:58;99241.34;;;14.64;82.58
12636;BME280;6383;50.830;7.210;2023-03-13T11:02:37;99243.31;;;14.63;82.58
12636;BME280;6383;50.830;7.210;2023-03-13T11:07:50;99238.97;;;14.62;82.85
12636;BME280;6383;50.830;7.210;2023-03-13T11:10:21;99237.03;;;14.63;82.83
12636;BME280;6383;50.830;7.210;2023-03-13T11:12:50;99235.09;;;14.63;82.26
12636;BME280;6383;50.830;7.210;2023-03-13T11:15:27;99230.84;;;14.66;82.50
12636;BME280;6383;50.830;7.210;2023-03-13T11:17:57;99226.94;;;14.67;83.05
12636;BME280;6383;50.830;7.210;2023-03-13T11:20:29;99215.63;;;14.68;82.65
12636;BME280;6383;50.830;7.210;2023-03-13T11:23:04;99214.91;;;14.71;83.33
12636;BME280;6383;50.830;7.210;2023-03-13T11:25:38;99209.94;;;14.77;83.41
12636;BME280;6383;50.830;7.210;2023-03-13T11:28:13;99201.78;;;14.80;82.91
12636;BME280;6383;50.830;7.210;2023-03-13T11:30:48;99197.59;;;14.87;83.65
12636;BME280;6383;50.830;7.210;2023-03-13T11:33:22;99179.72;;;14.93;83.81
12636;BME280;6383;50.830;7.210;2023-03-13T11:35:54;99177.09;;;15.00;83.04
12636;BME280;6383;50.830;7.210;2023-03-13T11:38:27;99172.47;;;15.04;83.03
12636;BME280;6383;50.830;7.210;2023-03-13T11:41:00;99165.91;;;15.08;82.70
12636;BME280;6383;50.830;7.210;2023-03-13T11:43:35;99170.31;;;15.13;82.75
12636;BME280;6383;50.830;7.210;2023-03-13T11:51:55;99133.09;;;15.35;82.40
12636;BME280;6383;50.830;7.210;2023-03-13T11:54:32;99131.25;;;15.42;82.23
12636;BME280;6383;50.830;7.210;2023-03-13T11:57:06;99140.75;;;15.48;82.40
12636;BME280;6383;50.830;7.210;2023-03-13T11:59:39;99115.44;;;15.55;82.08
12636;BME280;6383;50.830;7.210;2023-03-13T12:02:14;99117.03;;;15.60;82.53
12636;BME280;6383;50.830;7.210;2023-03-13T12:04:46;99107.34;;;15.66;81.50
12636;BME280;6383;50.830;7.210;2023-03-13T12:07:20;99100.78;;;15.74;81.20
12636;BME280;6383;50.830;7.210;2023-03-13T12:09:53;99100.91;;;15.81;81.39
12636;BME280;6383;50.830;7.210;2023-03-13T12:12:25;99097.09;;;15.89;80.48
12636;BME280;6383;50.830;7.210;2023-03-13T12:14:57;99097.19;;;15.96;80.77
12636;BME280;6383;50.830;7.210;2023-03-13T12:17:28;99093.34;;;16.01;79.36
12636;BME280;6383;50.830;7.210;2023-03-13T12:19:59;99088.72;;;16.08;79.48
12636;BME280;6383;50.830;7.210;2023-03-13T12:22:31;99088.41;;;16.13;79.69
12636;BME280;6383;50.830;7.210;2023-03-13T12:25:02;99104.13;;;16.16;79.42
12636;BME280;6383;50.830;7.210;2023-03-13T12:27:35;99086.09;;;16.19;77.95
12636;BME280;6383;50.830;7.210;2023-03-13T12:30:11;99078.28;;;16.21;78.05
12636;BME280;6383;50.830;7.210;2023-03-13T12:32:48;99077.91;;;16.22;77.75
12636;BME280;6383;50.830;7.210;2023-03-13T12:35:20;99083.03;;;16.24;77.27
12636;BME280;6383;50.830;7.210;2023-03-13T12:37:52;99081.13;;;16.28;77.00
12636;BME280;6383;50.830;7.210;2023-03-13T12:40:22;99073.31;;;16.30;76.40
12636;BME280;6383;50.830;7.210;2023-03-13T12:42:56;99075.69;;;16.32;76.41
12636;BME280;6383;50.830;7.210;2023-03-13T12:45:24;99059.59;;;16.34;76.15
12636;BME280;6383;50.830;7.210;2023-03-13T12:48:02;99065.16;;;16.37;76.15
12636;BME280;6383;50.830;7.210;2023-03-13T12:50:34;99062.81;;;16.39;75.43
12636;BME280;6383;50.830;7.210;2023-03-13T12:55:58;99043.66;;;16.43;75.63
12636;BME280;6383;50.830;7.210;2023-03-13T12:58:44;99043.66;;;16.43;75.64
12636;BME280;6383;50.830;7.210;2023-03-13T13:01:16;99042.09;;;16.45;75.35
12636;BME280;6383;50.830;7.210;2023-03-13T13:03:48;99049.19;;;16.46;75.26
12636;BME280;6383;50.830;7.210;2023-03-13T13:06:18;99032.69;;;16.46;75.08
12636;BME280;6383;50.830;7.210;2023-03-13T13:08:47;99039.38;;;16.45;75.16
12636;BME280;6383;50.830;7.210;2023-03-13T13:14:04;99027.22;;;16.46;74.42
12636;BME280;6383;50.830;7.210;2023-03-13T13:16:51;99020.94;;;16.46;74.37
12636;BME280;6383;50.830;7.210;2023-03-13T13:24:49;99026.38;;;16.42;74.02
12636;BME280;6383;50.830;7.210;2023-03-13T13:32:56;98988.69;;;16.39;73.71
12636;BME280;6383;50.830;7.210;2023-03-13T13:35:44;98972.22;;;16.39;74.24
12636;BME280;6383;50.830;7.210;2023-03-13T13:38:26;98965.56;;;16.40;74.59
12636;BME280;6383;50.830;7.210;2023-03-13T13:41:00;98963.97;;;16.39;74.61
12636;BME280;6383;50.830;7.210;2023-03-13T13:43:30;98963.97;;;16.39;74.19
12636;BME280;6383;50.830;7.210;2023-03-13T13:45:59;98947.50;;;16.39;74.40
12636;BME280;6383;50.830;7.210;2023-03-13T13:48:28;98951.41;;;16.38;73.99
12636;BME280;6383;50.830;7.210;2023-03-13T13:53:52;98946.66;;;16.35;74.12